createdAt,value
2019-03-11T00:00:32.950Z,42.90
2019-03-11T00:03:01.890Z,50.83
2019-03-11T00:05:30.743Z,55.00
2019-03-11T00:07:59.603Z,51.13
2019-03-11T00:10:28.527Z,59.80
2019-03-11T00:12:57.365Z,47.90
2019-03-11T00:15:26.219Z,50.80
2019-03-11T00:17:55.174Z,45.03
2019-03-11T00:20:24.034Z,47.10
2019-03-11T00:22:52.872Z,51.80
2019-03-11T00:25:21.790Z,41.07
2019-03-11T00:27:50.610Z,38.50
2019-03-11T00:30:19.441Z,33.97
2019-03-11T00:32:48.338Z,28.37
2019-03-11T00:35:17.193Z,27.97
2019-03-11T00:37:46.025Z,31.90
2019-03-11T00:40:15.833Z,30.93
2019-03-11T00:42:44.792Z,31.83
2019-03-11T00:45:14.947Z,35.53
2019-03-11T00:47:44.047Z,31.73
2019-03-11T00:50:13.716Z,36.77
2019-03-11T00:52:42.752Z,34.83
2019-03-11T00:55:13.176Z,39.20
2019-03-11T00:57:42.212Z,30.43
2019-03-11T01:00:32.041Z,31.03
2019-03-11T01:03:00.876Z,26.97
2019-03-11T01:05:29.737Z,27.07
2019-03-11T01:07:58.774Z,31.97
2019-03-11T01:10:27.627Z,42.57
2019-03-11T01:12:56.500Z,36.20
2019-03-11T01:15:25.545Z,43.17
2019-03-11T01:17:54.398Z,56.53
2019-03-11T01:20:23.237Z,73.97
2019-03-11T01:22:52.157Z,39.47
2019-03-11T01:25:21.000Z,26.43
2019-03-11T01:27:49.848Z,24.10
2019-03-11T01:30:18.949Z,21.03
2019-03-11T01:32:47.813Z,22.73
2019-03-11T01:35:16.667Z,21.87
2019-03-11T01:37:45.555Z,25.10
2019-03-11T01:40:16.020Z,26.67
2019-03-11T01:42:44.878Z,23.20
2019-03-11T01:45:15.968Z,25.97
2019-03-11T01:47:44.928Z,25.37
2019-03-11T01:50:15.065Z,32.80
2019-03-11T01:52:44.006Z,33.80
2019-03-11T01:55:13.833Z,33.73
2019-03-11T01:57:42.729Z,37.17
2019-03-11T02:03:13.334Z,33.13
2019-03-11T02:05:42.183Z,41.13
2019-03-11T02:08:11.047Z,38.07
2019-03-11T02:10:40.205Z,37.17
2019-03-11T02:13:09.069Z,23.67
2019-03-11T02:15:38.758Z,34.73
2019-03-11T02:18:07.661Z,30.43
2019-03-11T02:20:36.524Z,31.63
2019-03-11T02:23:05.333Z,26.03
2019-03-11T02:25:34.260Z,28.40
2019-03-11T02:28:03.106Z,29.10
2019-03-11T02:30:31.975Z,34.80
2019-03-11T02:33:00.876Z,31.10
2019-03-11T02:35:30.573Z,38.10
2019-03-11T02:37:59.502Z,32.67
2019-03-11T02:40:28.459Z,29.87
2019-03-11T02:42:57.386Z,40.03
2019-03-11T02:45:26.185Z,44.30
2019-03-11T02:47:55.132Z,33.77
2019-03-11T02:50:24.036Z,34.70
2019-03-11T02:52:52.919Z,53.37
2019-03-11T02:55:21.890Z,59.13
2019-03-11T02:57:50.763Z,47.03
2019-03-11T03:00:20.532Z,48.33
2019-03-11T03:02:54.304Z,83.43
2019-03-11T03:05:24.708Z,78.50
2019-03-11T03:07:53.550Z,69.87
2019-03-11T03:10:22.509Z,28.83
2019-03-11T03:12:51.306Z,28.60
2019-03-11T03:15:20.169Z,28.83
2019-03-11T03:17:49.103Z,27.30
2019-03-11T03:20:17.931Z,28.73
2019-03-11T03:22:46.779Z,34.43
2019-03-11T03:25:15.789Z,29.33
2019-03-11T03:27:44.703Z,28.33
2019-03-11T03:30:18.637Z,26.53
2019-03-11T03:32:47.799Z,27.13
2019-03-11T03:35:16.674Z,24.57
2019-03-11T03:37:45.601Z,22.10
2019-03-11T03:40:16.029Z,23.13
2019-03-11T03:42:45.176Z,27.70
2019-03-11T03:45:31.580Z,28.03
2019-03-11T03:48:00.936Z,26.23
2019-03-11T03:50:35.237Z,31.37
2019-03-11T03:53:04.191Z,27.80
2019-03-11T03:55:33.067Z,26.40
2019-03-11T03:58:01.914Z,23.50
2019-03-11T04:00:30.821Z,23.33
2019-03-11T04:02:59.691Z,23.67
2019-03-11T04:05:28.566Z,27.83
2019-03-11T04:07:57.459Z,28.37
2019-03-11T04:10:26.315Z,28.73
2019-03-11T04:12:55.279Z,29.83
2019-03-11T04:15:24.202Z,28.37
2019-03-11T04:17:53.161Z,25.60
2019-03-11T04:20:27.175Z,28.13
2019-03-11T04:22:56.170Z,30.90
2019-03-11T04:25:25.007Z,35.10
2019-03-11T04:27:53.871Z,38.93
2019-03-11T04:30:24.378Z,34.13
2019-03-11T04:32:53.296Z,39.40
2019-03-11T04:35:22.208Z,40.67
2019-03-11T04:37:51.106Z,46.00
2019-03-11T04:40:20.284Z,43.37
2019-03-11T04:42:49.164Z,41.33
2019-03-11T04:45:18.567Z,38.70
2019-03-11T04:47:47.519Z,42.17
2019-03-11T04:50:18.447Z,42.90
2019-03-11T04:52:47.449Z,40.87
2019-03-11T04:55:17.197Z,37.47
2019-03-11T04:57:54.260Z,42.47
2019-03-11T05:00:30.848Z,40.23
2019-03-11T05:02:59.739Z,42.80
2019-03-11T05:05:28.589Z,40.83
2019-03-11T05:07:57.731Z,44.03
2019-03-11T05:10:26.698Z,45.13
2019-03-11T05:12:55.562Z,43.13
2019-03-11T05:15:24.418Z,49.80
2019-03-11T05:17:53.305Z,47.63
2019-03-11T05:20:22.247Z,53.43
2019-03-11T05:22:51.114Z,53.97
2019-03-11T05:25:19.993Z,54.10
2019-03-11T05:27:48.845Z,62.83
2019-03-11T05:30:19.002Z,71.83
2019-03-11T05:32:48.034Z,64.60
2019-03-11T05:35:16.904Z,75.47
2019-03-11T05:37:45.749Z,82.67
2019-03-11T05:40:15.653Z,68.30
2019-03-11T05:42:44.529Z,76.90
2019-03-11T05:45:18.261Z,89.00
2019-03-11T05:47:47.569Z,71.33
2019-03-11T05:50:17.536Z,90.33
2019-03-11T05:52:46.628Z,118.93
2019-03-11T05:55:16.134Z,121.67
2019-03-11T05:57:45.492Z,145.93
2019-03-11T06:00:29.255Z,133.97
2019-03-11T06:02:58.102Z,121.17
2019-03-11T06:05:26.970Z,120.80
2019-03-11T06:07:55.871Z,97.77
2019-03-11T06:10:24.722Z,78.87
2019-03-11T06:12:54.937Z,67.87
2019-03-11T06:15:24.128Z,137.13
2019-03-11T06:17:53.095Z,142.23
2019-03-11T06:20:26.234Z,118.63
2019-03-11T06:22:55.621Z,139.57
2019-03-11T06:25:25.210Z,126.13
2019-03-11T06:27:54.107Z,121.53
2019-03-11T06:30:23.106Z,112.43
2019-03-11T06:32:51.956Z,121.97
2019-03-11T06:35:20.845Z,141.47
2019-03-11T06:37:49.776Z,148.43
2019-03-11T06:40:18.714Z,136.20
2019-03-11T06:42:47.588Z,138.60
2019-03-11T06:45:16.475Z,114.90
2019-03-11T06:47:51.014Z,62.70
2019-03-11T06:50:20.590Z,57.80
2019-03-11T06:52:49.730Z,32.47
2019-03-11T06:55:18.649Z,16.37
2019-03-11T06:57:47.559Z,13.20
2019-03-11T07:00:18.397Z,7.70
2019-03-11T07:02:47.260Z,7.70
2019-03-11T07:05:20.338Z,5.80
2019-03-11T07:07:48.464Z,4.23
2019-03-11T07:10:17.565Z,5.40
2019-03-11T07:12:46.499Z,5.50
2019-03-11T07:15:16.621Z,7.20
2019-03-11T07:17:45.789Z,6.20
2019-03-11T07:20:19.723Z,3.23
2019-03-11T07:22:51.078Z,2.43
2019-03-11T07:25:19.997Z,4.57
2019-03-11T07:27:49.246Z,5.30
2019-03-11T07:30:19.797Z,5.53
2019-03-11T07:32:49.554Z,4.63
2019-03-11T07:35:18.472Z,4.33
2019-03-11T07:37:47.366Z,4.60
2019-03-11T07:40:29.237Z,7.40
2019-03-11T07:42:49.557Z,4.80
2019-03-11T07:45:18.573Z,4.23
2019-03-11T07:47:49.012Z,4.10
2019-03-11T07:50:20.634Z,3.10
2019-03-11T07:52:50.040Z,6.77
2019-03-11T07:55:18.885Z,6.37
2019-03-11T07:57:47.782Z,4.10
2019-03-11T08:00:18.130Z,5.60
2019-03-11T08:02:46.984Z,4.77
2019-03-11T08:05:16.049Z,4.43
2019-03-11T08:07:44.900Z,4.83
2019-03-11T08:10:22.137Z,7.30
2019-03-11T08:12:51.736Z,5.47
2019-03-11T08:15:20.592Z,9.17
2019-03-11T08:17:49.511Z,6.23
2019-03-11T08:20:18.507Z,5.50
2019-03-11T08:22:47.461Z,5.53
2019-03-11T08:25:16.844Z,5.80
2019-03-11T08:27:45.856Z,5.57
2019-03-11T08:30:20.178Z,6.07
2019-03-11T08:32:48.998Z,5.97
2019-03-11T08:35:17.964Z,8.20
2019-03-11T08:37:47.002Z,7.33
2019-03-11T08:40:19.949Z,6.43
2019-03-11T08:42:49.313Z,6.43
2019-03-11T08:45:19.475Z,4.03
2019-03-11T08:47:49.778Z,5.57
2019-03-11T08:50:18.614Z,6.70
2019-03-11T08:52:47.523Z,3.80
2019-03-11T08:55:16.480Z,6.70
2019-03-11T08:57:45.381Z,4.10
2019-03-11T09:00:19.597Z,5.47
2019-03-11T09:02:48.433Z,6.97
2019-03-11T09:05:17.525Z,10.77
2019-03-11T09:07:46.529Z,9.63
2019-03-11T09:10:19.296Z,7.73
2019-03-11T09:12:48.306Z,8.73
2019-03-11T09:15:23.456Z,9.17
2019-03-11T09:17:52.349Z,10.57
2019-03-11T09:20:21.209Z,8.60
2019-03-11T09:22:50.104Z,8.83
2019-03-11T09:25:30.046Z,5.00
2019-03-11T09:27:58.949Z,4.73
2019-03-11T09:30:27.789Z,3.57
2019-03-11T09:32:56.667Z,5.57
2019-03-11T09:35:25.627Z,5.63
2019-03-11T09:37:54.496Z,6.70
2019-03-11T09:40:23.344Z,7.47
2019-03-11T09:42:52.233Z,8.70
2019-03-11T09:45:23.858Z,11.60
2019-03-11T09:47:51.674Z,12.73
2019-03-11T09:50:20.552Z,14.70
2019-03-11T09:52:49.417Z,17.37
2019-03-11T09:55:28.802Z,11.60
2019-03-11T09:57:57.643Z,12.50
2019-03-11T10:00:35.888Z,10.17
2019-03-11T10:03:04.930Z,7.27
2019-03-11T10:05:33.906Z,6.77
2019-03-11T10:08:02.908Z,7.97
2019-03-11T10:10:31.784Z,6.07
2019-03-11T10:13:00.618Z,5.77
2019-03-11T10:15:29.561Z,6.90
2019-03-11T10:17:58.403Z,6.27
2019-03-11T10:20:27.353Z,5.13
2019-03-11T10:22:56.245Z,3.43
2019-03-11T10:25:25.116Z,4.93
2019-03-11T10:27:53.980Z,6.03
2019-03-11T10:30:24.293Z,5.63
2019-03-11T10:32:53.146Z,6.60
2019-03-11T10:35:37.378Z,10.83
2019-03-11T10:37:52.564Z,10.77
2019-03-11T10:40:23.685Z,14.67
2019-03-11T10:42:52.615Z,18.67
2019-03-11T10:45:30.538Z,23.80
2019-03-11T10:47:52.101Z,15.37
2019-03-11T10:50:21.461Z,8.13
2019-03-11T10:52:50.459Z,4.93
2019-03-11T10:55:23.292Z,6.23
2019-03-11T10:57:52.474Z,8.07
2019-03-11T11:00:33.561Z,11.90
2019-03-11T11:03:02.542Z,7.93
2019-03-11T11:05:31.490Z,14.60
2019-03-11T11:08:00.370Z,28.20
2019-03-11T11:10:29.229Z,15.30
2019-03-11T11:12:58.015Z,9.97
2019-03-11T11:15:31.755Z,11.47
2019-03-11T11:18:00.612Z,10.17
2019-03-11T11:20:29.502Z,15.60
2019-03-11T11:22:58.418Z,26.17
2019-03-11T11:25:29.345Z,24.10
2019-03-11T11:27:58.297Z,17.60
2019-03-11T11:30:30.093Z,15.40
2019-03-11T11:32:58.917Z,17.30
2019-03-11T11:35:27.773Z,20.77
2019-03-11T11:37:56.684Z,23.87
2019-03-11T11:40:27.636Z,23.10
2019-03-11T11:42:56.584Z,17.27
2019-03-11T11:45:33.201Z,14.10
2019-03-11T11:48:02.095Z,16.27
2019-03-11T11:50:30.930Z,19.53
2019-03-11T11:52:59.829Z,14.67
2019-03-11T11:55:28.683Z,7.57
2019-03-11T11:57:57.580Z,8.00
2019-03-11T12:00:31.707Z,8.00
2019-03-11T12:03:00.582Z,8.13
2019-03-11T12:05:29.443Z,11.07
2019-03-11T12:07:58.377Z,8.83
2019-03-11T12:10:28.434Z,11.33
2019-03-11T12:12:57.697Z,10.70
2019-03-11T12:15:26.693Z,11.27
2019-03-11T12:17:55.579Z,10.87
2019-03-11T12:20:26.626Z,9.37
2019-03-11T12:22:55.505Z,8.13
2019-03-11T12:25:24.581Z,10.70
2019-03-11T12:27:54.609Z,13.07
2019-03-11T12:30:26.189Z,13.10
2019-03-11T12:32:55.141Z,20.40
2019-03-11T12:35:24.305Z,21.00
2019-03-11T12:37:53.632Z,18.63
2019-03-11T12:40:22.875Z,14.37
2019-03-11T12:42:51.732Z,16.30
2019-03-11T12:45:22.060Z,15.90
2019-03-11T12:47:51.141Z,19.53
2019-03-11T12:50:27.945Z,25.20
2019-03-11T12:52:56.941Z,18.33
2019-03-11T12:55:25.787Z,17.57
2019-03-11T12:57:54.741Z,17.10
2019-03-11T13:00:24.627Z,19.00
2019-03-11T13:02:53.592Z,19.10
2019-03-11T13:05:22.496Z,18.73
2019-03-11T13:07:51.693Z,14.77
2019-03-11T13:10:25.391Z,16.37
2019-03-11T13:12:54.397Z,14.20
2019-03-11T13:15:23.508Z,23.30
2019-03-11T13:17:52.446Z,70.50
2019-03-11T13:20:35.984Z,33.63
2019-03-11T13:23:04.829Z,29.90
2019-03-11T13:25:34.714Z,33.87
2019-03-11T13:28:03.575Z,16.97
2019-03-11T13:30:32.428Z,20.77
2019-03-11T13:33:01.361Z,56.03
2019-03-11T13:35:30.220Z,16.77
2019-03-11T13:37:59.599Z,42.77
2019-03-11T13:40:28.877Z,22.03
2019-03-11T13:42:57.734Z,14.47
2019-03-11T13:45:26.603Z,10.90
2019-03-11T13:47:55.481Z,11.17
2019-03-11T13:50:26.905Z,10.07
2019-03-11T13:52:55.819Z,11.43
2019-03-11T13:55:24.754Z,12.20
2019-03-11T13:57:53.716Z,9.43
2019-03-11T14:00:22.678Z,11.20
2019-03-11T14:02:51.627Z,11.87
2019-03-11T14:05:20.805Z,14.13
2019-03-11T14:07:49.652Z,13.07
2019-03-11T14:10:18.585Z,13.13
2019-03-11T14:12:47.384Z,13.53
2019-03-11T14:15:18.277Z,14.73
2019-03-11T14:17:47.468Z,14.07
2019-03-11T14:20:17.658Z,12.07
2019-03-11T14:22:47.984Z,13.40
2019-03-11T14:25:16.934Z,19.10
2019-03-11T14:27:45.807Z,18.77
2019-03-11T14:30:20.635Z,20.13
2019-03-11T14:32:49.492Z,22.50
2019-03-11T14:35:19.290Z,25.20
2019-03-11T14:37:48.425Z,24.93
2019-03-11T14:40:22.559Z,31.07
2019-03-11T14:42:51.446Z,30.00
2019-03-11T14:45:21.438Z,23.83
2019-03-11T14:47:50.326Z,27.00
2019-03-11T14:50:19.460Z,31.10
2019-03-11T14:52:48.502Z,21.67
2019-03-11T14:55:17.419Z,22.97
2019-03-11T14:57:46.289Z,26.67
2019-03-11T15:00:24.195Z,23.87
2019-03-11T15:02:53.055Z,30.83
2019-03-11T15:05:22.140Z,38.60
2019-03-11T15:07:51.121Z,46.27
2019-03-11T15:10:20.437Z,47.20
2019-03-11T15:12:49.569Z,46.23
2019-03-11T15:15:22.664Z,37.83
2019-03-11T15:17:51.501Z,39.50
2019-03-11T15:20:20.394Z,37.60
2019-03-11T15:22:49.500Z,32.40
2019-03-11T15:25:19.184Z,38.73
2019-03-11T15:27:49.346Z,41.40
2019-03-11T15:30:22.189Z,38.30
2019-03-11T15:32:51.095Z,33.80
2019-03-11T15:35:20.570Z,37.27
2019-03-11T15:37:51.126Z,42.87
2019-03-11T15:40:20.112Z,39.80
2019-03-11T15:42:49.011Z,48.20
2019-03-11T15:45:18.912Z,43.33
2019-03-11T15:47:47.798Z,53.33
2019-03-11T15:50:25.085Z,42.47
2019-03-11T15:52:53.980Z,46.77
2019-03-11T15:55:22.878Z,44.37
2019-03-11T15:57:51.834Z,37.33
2019-03-11T16:00:22.514Z,51.30
2019-03-11T16:02:51.662Z,64.63
2019-03-11T16:05:25.600Z,87.80
2019-03-11T16:07:54.510Z,113.97
2019-03-11T16:10:23.499Z,120.00
2019-03-11T16:12:52.446Z,95.37
2019-03-11T16:15:21.427Z,87.33
2019-03-11T16:17:50.318Z,104.33
2019-03-11T16:20:20.700Z,74.27
2019-03-11T16:22:49.692Z,74.83
2019-03-11T16:25:18.569Z,58.70
2019-03-11T16:27:47.520Z,58.90
2019-03-11T16:30:18.462Z,66.77
2019-03-11T16:32:58.458Z,70.63
2019-03-11T16:35:18.370Z,76.80
2019-03-11T16:37:47.365Z,80.53
2019-03-11T16:40:16.448Z,71.80
2019-03-11T16:42:46.412Z,69.47
2019-03-11T16:45:18.230Z,82.63
2019-03-11T16:47:47.993Z,90.87
2019-03-11T16:50:23.240Z,91.70
2019-03-11T16:52:52.074Z,88.90
2019-03-11T16:55:32.799Z,146.40
2019-03-11T16:58:02.393Z,244.23
2019-03-11T17:00:38.449Z,221.87
2019-03-11T17:03:07.453Z,241.13
2019-03-11T17:05:36.344Z,237.80
2019-03-11T17:08:05.538Z,329.77
2019-03-11T17:10:34.580Z,318.70
2019-03-11T17:13:03.483Z,349.20
2019-03-11T17:15:33.899Z,342.53
2019-03-11T17:18:02.939Z,370.47
2019-03-11T17:20:31.783Z,376.23
2019-03-11T17:23:00.683Z,389.23
2019-03-11T17:25:29.566Z,384.43
2019-03-11T17:27:58.441Z,401.57
2019-03-11T17:30:27.872Z,426.10
2019-03-11T17:32:56.734Z,351.07
2019-03-11T17:35:25.751Z,297.37
2019-03-11T17:37:54.668Z,296.93
2019-03-11T17:40:24.815Z,329.27
2019-03-11T17:42:54.372Z,352.97
2019-03-11T17:45:23.397Z,223.07
2019-03-11T17:47:52.590Z,165.97
2019-03-11T17:50:25.052Z,98.80
2019-03-11T17:52:54.836Z,61.90
2019-03-11T17:55:25.151Z,54.90
2019-03-11T17:57:54.123Z,55.70
2019-03-11T18:00:34.596Z,95.57
2019-03-11T18:03:03.456Z,81.47
2019-03-11T18:05:32.350Z,65.83
2019-03-11T18:08:01.286Z,87.43
2019-03-11T18:10:30.131Z,107.90
2019-03-11T18:12:59.010Z,65.10
2019-03-11T18:15:28.665Z,77.70
2019-03-11T18:17:59.103Z,136.53
2019-03-11T18:20:28.204Z,107.07
2019-03-11T18:22:57.167Z,163.83
2019-03-11T18:25:26.030Z,158.13
2019-03-11T18:27:54.909Z,157.77
2019-03-11T18:30:28.986Z,167.40
2019-03-11T18:32:58.029Z,188.30
2019-03-11T18:35:27.079Z,204.50
2019-03-11T18:38:04.270Z,205.83
2019-03-11T18:40:26.645Z,210.90
2019-03-11T18:42:55.591Z,212.03
2019-03-11T18:45:24.483Z,250.20
2019-03-11T18:47:58.650Z,235.90
2019-03-11T18:50:32.745Z,194.07
2019-03-11T18:53:01.673Z,162.13
2019-03-11T18:55:30.553Z,132.17
2019-03-11T18:57:59.463Z,119.07
2019-03-11T19:00:28.294Z,132.33
2019-03-11T19:02:57.390Z,122.43
2019-03-11T19:05:26.399Z,103.07
2019-03-11T19:07:55.601Z,77.50
2019-03-11T19:10:24.532Z,61.60
2019-03-11T19:12:53.464Z,30.77
2019-03-11T19:15:26.436Z,43.20
2019-03-11T19:17:55.344Z,24.93
2019-03-11T19:20:25.311Z,30.37
2019-03-11T19:22:55.733Z,25.53
2019-03-11T19:25:27.786Z,23.77
2019-03-11T19:27:56.843Z,24.23
2019-03-11T19:30:26.919Z,24.03
2019-03-11T19:32:55.812Z,24.03
2019-03-11T19:35:24.737Z,22.33
2019-03-11T19:37:53.801Z,19.83
2019-03-11T19:40:25.315Z,19.13
2019-03-11T19:42:54.574Z,21.87
2019-03-11T19:45:23.420Z,21.10
2019-03-11T19:47:52.225Z,19.00
2019-03-11T19:50:21.440Z,20.47
2019-03-11T19:52:58.404Z,18.60
2019-03-11T19:55:20.980Z,17.30
2019-03-11T19:57:49.981Z,14.03
2019-03-11T20:00:23.133Z,13.17
2019-03-11T20:02:52.094Z,13.37
2019-03-11T20:05:29.346Z,8.63
2019-03-11T20:07:58.240Z,6.67
2019-03-11T20:10:27.459Z,7.27
2019-03-11T20:12:56.374Z,8.97
2019-03-11T20:15:25.266Z,7.30
2019-03-11T20:17:54.210Z,8.50
2019-03-11T20:20:23.230Z,10.33
2019-03-11T20:22:52.848Z,8.20
2019-03-11T20:25:30.822Z,9.37
2019-03-11T20:27:59.735Z,11.30
2019-03-11T20:30:28.835Z,12.10
2019-03-11T20:32:57.787Z,12.20
2019-03-11T20:35:26.675Z,8.50
2019-03-11T20:37:55.577Z,10.07
2019-03-11T20:40:24.511Z,7.33
2019-03-11T20:42:53.415Z,14.27
2019-03-11T20:45:22.886Z,88.13
2019-03-11T20:47:51.939Z,72.23
2019-03-11T20:50:20.790Z,68.47
2019-03-11T20:52:49.730Z,63.83
2019-03-11T20:55:20.465Z,51.03
2019-03-11T20:57:49.348Z,40.00
2019-03-11T21:00:26.572Z,43.07
2019-03-11T21:02:55.549Z,39.73
2019-03-11T21:05:30.333Z,44.93
2019-03-11T21:07:59.239Z,54.23
2019-03-11T21:10:28.232Z,51.33
2019-03-11T21:12:57.228Z,63.40
2019-03-11T21:15:26.172Z,67.83
2019-03-11T21:17:55.103Z,74.30
2019-03-11T21:20:24.038Z,71.70
2019-03-11T21:22:52.919Z,53.30
2019-03-11T21:25:22.496Z,54.50
2019-03-11T21:27:51.518Z,50.20
2019-03-11T21:30:27.594Z,45.70
2019-03-11T21:32:56.506Z,45.70
2019-03-11T21:35:25.619Z,60.23
2019-03-11T21:37:54.862Z,51.73
2019-03-11T21:40:24.610Z,58.67
2019-03-11T21:42:55.993Z,65.33
2019-03-11T21:45:34.085Z,74.63
2019-03-11T21:47:55.730Z,70.63
2019-03-11T21:50:28.815Z,64.13
2019-03-11T21:52:57.927Z,58.90
2019-03-11T21:55:27.037Z,56.00
2019-03-11T21:57:55.957Z,46.87
2019-03-11T22:00:35.729Z,49.67
2019-03-11T22:02:55.899Z,42.97
2019-03-11T22:05:24.754Z,51.57
2019-03-11T22:07:53.664Z,42.10
2019-03-11T22:10:22.579Z,32.80
2019-03-11T22:12:51.434Z,30.07
2019-03-11T22:15:25.313Z,29.07
2019-03-11T22:17:54.368Z,28.57
2019-03-11T22:20:24.928Z,29.37
2019-03-11T22:22:53.818Z,27.40
2019-03-11T22:25:22.862Z,31.33
2019-03-11T22:27:51.703Z,31.53
2019-03-11T22:30:22.859Z,34.80
2019-03-11T22:32:51.895Z,30.80
2019-03-11T22:35:20.831Z,28.53
2019-03-11T22:37:49.677Z,25.03
2019-03-11T22:40:19.687Z,26.67
2019-03-11T22:42:48.663Z,28.10
2019-03-11T22:45:22.485Z,26.27
2019-03-11T22:47:52.222Z,30.17
2019-03-11T22:50:21.481Z,32.87
2019-03-11T22:52:50.438Z,27.20
2019-03-11T22:55:20.904Z,30.63
2019-03-11T22:57:49.877Z,36.50
2019-03-11T23:00:48.212Z,42.47
2019-03-11T23:03:17.101Z,33.50
2019-03-11T23:05:57.792Z,30.00
2019-03-11T23:08:26.262Z,23.97
2019-03-11T23:10:56.592Z,27.90
2019-03-11T23:13:25.477Z,28.33
2019-03-11T23:15:54.398Z,33.87
2019-03-11T23:18:30.515Z,43.20
2019-03-11T23:20:59.409Z,44.33
2019-03-11T23:23:28.259Z,45.97
2019-03-11T23:25:57.126Z,48.47
2019-03-11T23:28:26.316Z,43.80
2019-03-11T23:30:55.135Z,44.37
2019-03-11T23:33:24.002Z,48.03
2019-03-11T23:35:52.917Z,39.77
2019-03-11T23:38:21.785Z,32.97
2019-03-11T23:40:50.633Z,32.13
2019-03-11T23:43:19.570Z,35.87
2019-03-11T23:45:48.367Z,38.20
2019-03-11T23:48:17.323Z,41.33
2019-03-11T23:50:46.241Z,39.20
2019-03-11T23:53:15.076Z,41.73
2019-03-11T23:55:43.946Z,43.27
2019-03-11T23:58:12.877Z,46.30
